Time;durP1;ratioP1;P1;durP2;ratioP2;P2;SDS_P1;SDS_P2;PMS_P1;PMS_P2;Temp;Humidity;BMP_temperature;BMP_pressure;BME280_temperature;BME280_humidity;BME280_pressure;Samples;Min_cycle;Max_cycle;Signal;HPM_P1;HPM_P2
2022/04/16 00:01:45;;;;;;;;;;;;;;;;;;5031244;28;992;-70
2022/04/16 00:04:11;;;;;;;;;;;;;;;;;;5029437;28;2626;-68
2022/04/16 00:06:38;;;;;;;;;;;;;;;;;;5025463;28;2327;-70
2022/04/16 00:09:04;;;;;;;;;;;;;;;;;;5012316;28;1476;-69
2022/04/16 00:11:30;;;;;;;;;;;;;;;;;;5029189;28;1967;-70
2022/04/16 00:13:56;;;;;;;;;;;;;;;;;;5030780;28;1329;-69
2022/04/16 00:16:23;;;;;;;;;;;;;;;;;;5030222;28;1115;-69
2022/04/16 00:18:50;;;;;;;;;;;;;;;;;;5030994;28;969;-69
2022/04/16 00:21:17;;;;;;;;;;;;;;;;;;5030720;28;1067;-70
2022/04/16 00:23:43;;;;;;;;;;;;;;;;;;5030749;28;1390;-69
2022/04/16 00:26:11;;;;;;;;;;;;;;;;;;5030145;28;1633;-68
2022/04/16 00:28:37;;;;;;;;;;;;;;;;;;5030664;28;1102;-70
2022/04/16 00:31:03;;;;;;;;;;;;;;;;;;5030755;28;799;-69
2022/04/16 00:33:30;;;;;;;;;;;;;;;;;;5030604;28;1918;-70
2022/04/16 00:35:57;;;;;;;;;;;;;;;;;;5030878;28;1368;-69
2022/04/16 00:38:24;;;;;;;;;;;;;;;;;;5029092;28;1578;-70
2022/04/16 00:40:52;;;;;;;;;;;;;;;;;;5010870;28;702;-69
2022/04/16 00:43:21;;;;;;;;;;;;;;;;;;5011054;28;1005;-69
2022/04/16 00:45:48;;;;;;;;;;;;;;;;;;5011372;28;1313;-70
2022/04/16 00:48:14;;;;;;;;;;;;;;;;;;5014653;28;1556;-69
2022/04/16 00:50:40;;;;;;;;;;;;;;;;;;4997870;28;1226;-69
2022/04/16 00:53:08;;;;;;;;;;;;;;;;;;5054776;28;1914;-69
2022/04/16 00:55:34;;;;;;;;;;;;;;;;;;5054511;28;1357;-69
2022/04/16 00:58:00;;;;;;;;;;;;;;;;;;5054364;28;834;-69
2022/04/16 01:00:26;;;;;;;;;;;;;;;;;;5054276;28;1083;-69
2022/04/16 01:02:53;;;;;;;;;;;;;;;;;;5036937;28;1205;-69
2022/04/16 01:05:21;;;;;;;;;;;;;;;;;;5054320;28;1401;-70
2022/04/16 01:07:48;;;;;;;;;;;;;;;;;;5054332;28;925;-70
2022/04/16 01:10:16;;;;;;;;;;;;;;;;;;5054035;28;1071;-69
2022/04/16 01:12:42;;;;;;;;;;;;;;;;;;5054294;28;1921;-70
2022/04/16 01:15:10;;;;;;;;;;;;;;;;;;5014798;28;1690;-69
2022/04/16 01:17:36;;;;;;;;;;;;;;;;;;5011440;28;980;-70
2022/04/16 01:20:03;;;;;;;;;;;;;;;;;;4994571;28;1190;-69
2022/04/16 01:22:31;;;;;;;;;;;;;;;;;;5010073;28;966;-69
2022/04/16 01:24:59;;;;;;;;;;;;;;;;;;5012015;28;1318;-70
2022/04/16 01:27:26;;;;;;;;;;;;;;;;;;5011838;28;969;-69
2022/04/16 01:29:53;;;;;;;;;;;;;;;;;;5012200;28;1084;-69
2022/04/16 01:32:19;;;;;;;;;;;;;;;;;;5011768;28;1982;-70
2022/04/16 01:34:45;;;;;;;;;;;;;;;;;;5011769;28;1426;-70
2022/04/16 01:37:12;;;;;;;;;;;;;;;;;;5011722;28;977;-69
2022/04/16 01:39:40;;;;;;;;;;;;;;;;;;5012130;28;857;-69
2022/04/16 01:42:07;;;;;;;;;;;;;;;;;;5011807;28;1122;-69
2022/04/16 01:44:33;;;;;;;;;;;;;;;;;;5011809;28;1337;-69
2022/04/16 01:46:59;;;;;;;;;;;;;;;;;;4994067;28;1370;-69
2022/04/16 01:49:26;;;;;;;;;;;;;;;;;;5012015;28;953;-69
2022/04/16 01:51:53;;;;;;;;;;;;;;;;;;5014309;28;1139;-69
2022/04/16 01:54:19;;;;;;;;;;;;;;;;;;5051485;28;1339;-68
2022/04/16 01:56:47;;;;;;;;;;;;;;;;;;5038529;28;1628;-68
2022/04/16 01:59:13;;;;;;;;;;;;;;;;;;5023153;28;1112;-69
2022/04/16 02:01:39;;;;;;;;;;;;;;;;;;5031291;28;1108;-69
2022/04/16 02:04:07;;;;;;;;;;;;;;;;;;5031061;28;1328;-69
2022/04/16 02:06:35;;;;;;;;;;;;;;;;;;5028988;28;2047;-70
2022/04/16 02:09:01;;;;;;;;;;;;;;;;;;5029081;28;1472;-70
2022/04/16 02:11:27;;;;;;;;;;;;;;;;;;5013244;28;1444;-70
2022/04/16 02:13:55;;;;;;;;;;;;;;;;;;5011127;28;1895;-69
2022/04/16 02:16:21;;;;;;;;;;;;;;;;;;5010986;28;1064;-69
2022/04/16 02:18:47;;;;;;;;;;;;;;;;;;5011384;28;1076;-69
2022/04/16 02:21:13;;;;;;;;;;;;;;;;;;5010923;28;1210;-69
2022/04/16 02:23:39;;;;;;;;;;;;;;;;;;5009153;28;956;-69
2022/04/16 02:26:07;;;;;;;;;;;;;;;;;;4998468;28;1665;-67
2022/04/16 02:28:33;;;;;;;;;;;;;;;;;;4983273;23;3630;-68
2022/04/16 02:31:01;;;;;;;;;;;;;;;;;;4950598;29;1161;-68
2022/04/16 02:33:27;;;;;;;;;;;;;;;;;;4951215;29;1978;-68
2022/04/16 02:35:54;;;;;;;;;;;;;;;;;;4951139;28;972;-68
2022/04/16 02:38:20;;;;;;;;;;;;;;;;;;4951033;29;1316;-67
2022/04/16 02:40:47;;;;;;;;;;;;;;;;;;4950967;29;1142;-68
2022/04/16 02:43:13;;;;;;;;;;;;;;;;;;4951085;29;1135;-69
2022/04/16 02:48:25;;;;;;;;;;;;;;;;;;4950433;29;1351;-66
2022/04/16 02:50:53;;;;;;;;;;;;;;;;;;4950796;29;1234;-69
2022/04/16 02:53:19;;;;;;;;;;;;;;;;;;4950897;28;1976;-68
2022/04/16 02:55:46;;;;;;;;;;;;;;;;;;4950895;29;1073;-68
2022/04/16 02:58:12;;;;;;;;;;;;;;;;;;4954790;28;1816;-68
2022/04/16 03:00:39;;;;;;;;;;;;;;;;;;4983290;28;1168;-68
2022/04/16 03:03:05;;;;;;;;;;;;;;;;;;5004019;28;1215;-67
2022/04/16 03:05:34;;;;;;;;;;;;;;;;;;4931594;29;1123;-67
2022/04/16 03:08:00;;;;;;;;;;;;;;;;;;4931305;29;1417;-67
2022/04/16 03:10:26;;;;;;;;;;;;;;;;;;4930803;29;791;-67
2022/04/16 03:12:53;;;;;;;;;;;;;;;;;;4931458;29;1916;-67
2022/04/16 03:18:03;;;;;;;;;;;;;;;;;;4950190;29;1403;-68
2022/04/16 03:20:29;;;;;;;;;;;;;;;;;;4950608;29;1123;-67
2022/04/16 03:22:57;;;;;;;;;;;;;;;;;;4950665;29;894;-67
2022/04/16 03:25:23;;;;;;;;;;;;;;;;;;5016638;28;1284;-67
2022/04/16 03:27:49;;;;;;;;;;;;;;;;;;4949919;29;1419;-67
2022/04/16 03:30:16;;;;;;;;;;;;;;;;;;4950399;29;1138;-66
2022/04/16 03:32:42;;;;;;;;;;;;;;;;;;4950313;28;1923;-67
2022/04/16 03:35:09;;;;;;;;;;;;;;;;;;5016304;28;1136;-67
2022/04/16 03:37:35;;;;;;;;;;;;;;;;;;4949965;29;1250;-67
2022/04/16 03:40:03;;;;;;;;;;;;;;;;;;4949898;29;819;-67
2022/04/16 03:42:31;;;;;;;;;;;;;;;;;;4950228;29;1132;-67
2022/04/16 03:44:57;;;;;;;;;;;;;;;;;;4950441;28;874;-67
2022/04/16 03:47:23;;;;;;;;;;;;;;;;;;4949985;29;1380;-68
2022/04/16 03:49:51;;;;;;;;;;;;;;;;;;4950037;29;1060;-67
2022/04/16 03:52:17;;;;;;;;;;;;;;;;;;4942041;28;1347;-67
2022/04/16 04:00:13;;;;;;;;;;;;;;;;;;4930890;29;1029;-67
2022/04/16 04:02:39;;;;;;;;;;;;;;;;;;4930822;29;767;-67
2022/04/16 04:05:06;;;;;;;;;;;;;;;;;;4930919;29;1033;-68
2022/04/16 04:07:32;;;;;;;;;;;;;;;;;;4915184;29;2365;-67
2022/04/16 04:09:59;;;;;;;;;;;;;;;;;;4995552;28;1478;-67
2022/04/16 04:12:25;;;;;;;;;;;;;;;;;;5010494;28;842;-67
2022/04/16 04:14:52;;;;;;;;;;;;;;;;;;5010695;28;1979;-67
2022/04/16 04:17:19;;;;;;;;;;;;;;;;;;5010491;28;1321;-67
2022/04/16 04:19:45;;;;;;;;;;;;;;;;;;5010741;28;843;-67
2022/04/16 04:22:12;;;;;;;;;;;;;;;;;;5010889;28;890;-67
2022/04/16 04:24:39;;;;;;;;;;;;;;;;;;5011545;28;1048;-67
2022/04/16 04:27:06;;;;;;;;;;;;;;;;;;4941899;28;1525;-67
2022/04/16 04:29:32;;;;;;;;;;;;;;;;;;4930492;28;1063;-67
2022/04/16 04:32:00;;;;;;;;;;;;;;;;;;4930215;29;953;-67
2022/04/16 04:34:26;;;;;;;;;;;;;;;;;;4930444;29;1914;-67
2022/04/16 04:36:52;;;;;;;;;;;;;;;;;;4930051;29;1503;-68
2022/04/16 04:39:18;;;;;;;;;;;;;;;;;;4930575;28;1115;-67
2022/04/16 04:41:45;;;;;;;;;;;;;;;;;;4994426;28;1118;-67
2022/04/16 04:44:11;;;;;;;;;;;;;;;;;;4930443;28;1084;-67
2022/04/16 04:46:37;;;;;;;;;;;;;;;;;;4930089;29;992;-67
2022/04/16 04:49:07;;;;;;;;;;;;;;;;;;4930266;29;1064;-67
2022/04/16 04:51:33;;;;;;;;;;;;;;;;;;4932587;28;1238;-67
2022/04/16 04:53:59;;;;;;;;;;;;;;;;;;4949300;29;1978;-67
2022/04/16 04:56:26;;;;;;;;;;;;;;;;;;4949055;29;1088;-67
2022/04/16 04:58:52;;;;;;;;;;;;;;;;;;4949102;29;1423;-66
2022/04/16 05:01:19;;;;;;;;;;;;;;;;;;4949396;29;891;-67
2022/04/16 05:03:45;;;;;;;;;;;;;;;;;;4949421;28;1139;-67
2022/04/16 05:06:12;;;;;;;;;;;;;;;;;;4949148;29;1123;-67
2022/04/16 05:08:38;;;;;;;;;;;;;;;;;;4949331;29;1323;-67
2022/04/16 05:11:05;;;;;;;;;;;;;;;;;;4925022;29;1682;-67
2022/04/16 05:13:31;;;;;;;;;;;;;;;;;;4911029;29;1919;-66
2022/04/16 05:15:57;;;;;;;;;;;;;;;;;;4923935;29;1643;-68
2022/04/16 05:18:23;;;;;;;;;;;;;;;;;;4994969;28;1655;-68
2022/04/16 05:20:49;;;;;;;;;;;;;;;;;;4929546;29;787;-68
2022/04/16 05:23:17;;;;;;;;;;;;;;;;;;4992207;28;1332;-68
2022/04/16 05:25:43;;;;;;;;;;;;;;;;;;4920503;29;1205;-68
2022/04/16 05:28:09;;;;;;;;;;;;;;;;;;4927378;29;1399;-68
2022/04/16 05:30:38;;;;;;;;;;;;;;;;;;4915896;29;1285;-68
2022/04/16 05:33:16;;;;;;;;;;;;;;;;;;4913051;28;1911;-68
2022/04/16 05:35:42;;;;;;;;;;;;;;;;;;4979449;28;1105;-68
2022/04/16 05:38:08;;;;;;;;;;;;;;;;;;4913707;29;1433;-68
2022/04/16 05:40:35;;;;;;;;;;;;;;;;;;4979166;28;1251;-68
2022/04/16 05:43:02;;;;;;;;;;;;;;;;;;4913643;28;887;-68
2022/04/16 05:45:28;;;;;;;;;;;;;;;;;;4979534;28;1287;-68
2022/04/16 05:47:54;;;;;;;;;;;;;;;;;;4913419;28;1319;-68
2022/04/16 05:50:20;;;;;;;;;;;;;;;;;;4913777;29;1144;-69
2022/04/16 05:52:46;;;;;;;;;;;;;;;;;;4937863;29;1228;-69
2022/04/16 05:55:13;;;;;;;;;;;;;;;;;;4937984;29;1914;-68
2022/04/16 05:57:41;;;;;;;;;;;;;;;;;;4931996;29;1459;-68
2022/04/16 06:00:07;;;;;;;;;;;;;;;;;;4931851;29;1593;-68
2022/04/16 06:02:40;;;;;;;;;;;;;;;;;;4932632;29;1464;-68
2022/04/16 06:05:07;;;;;;;;;;;;;;;;;;4932356;29;1560;-67
2022/04/16 06:07:33;;;;;;;;;;;;;;;;;;4920199;29;2110;-68
2022/04/16 06:09:59;;;;;;;;;;;;;;;;;;4915578;28;1481;-68
2022/04/16 06:12:26;;;;;;;;;;;;;;;;;;4997510;28;1458;-69
2022/04/16 06:14:54;;;;;;;;;;;;;;;;;;4987042;28;1922;-69
2022/04/16 06:17:20;;;;;;;;;;;;;;;;;;4927569;29;1763;-69
2022/04/16 06:19:46;;;;;;;;;;;;;;;;;;4930761;29;949;-69
2022/04/16 06:22:12;;;;;;;;;;;;;;;;;;4930748;29;1061;-69
2022/04/16 06:24:40;;;;;;;;;;;;;;;;;;4930580;29;938;-68
2022/04/16 06:27:06;;;;;;;;;;;;;;;;;;4928783;29;1564;-69
2022/04/16 06:29:32;;;;;;;;;;;;;;;;;;4911533;29;1133;-69
2022/04/16 06:32:00;;;;;;;;;;;;;;;;;;4913508;29;1189;-68
2022/04/16 06:34:27;;;;;;;;;;;;;;;;;;4921353;29;1986;-69
2022/04/16 06:36:53;;;;;;;;;;;;;;;;;;4985256;28;1463;-69
2022/04/16 06:39:20;;;;;;;;;;;;;;;;;;4929752;29;1603;-70
2022/04/16 06:41:46;;;;;;;;;;;;;;;;;;4929913;29;1473;-70
2022/04/16 06:44:12;;;;;;;;;;;;;;;;;;4928851;29;1665;-70
2022/04/16 06:46:38;;;;;;;;;;;;;;;;;;4929482;29;1483;-70
2022/04/16 06:49:06;;;;;;;;;;;;;;;;;;4923145;29;1421;-69
2022/04/16 06:51:32;;;;;;;;;;;;;;;;;;4912003;29;1283;-70
2022/04/16 06:53:58;;;;;;;;;;;;;;;;;;4923181;29;1938;-70
2022/04/16 06:56:24;;;;;;;;;;;;;;;;;;4929770;28;964;-70
2022/04/16 06:58:51;;;;;;;;;;;;;;;;;;4929530;29;1564;-70
2022/04/16 07:01:17;;;;;;;;;;;;;;;;;;4930095;29;1073;-69
2022/04/16 07:03:43;;;;;;;;;;;;;;;;;;4930050;29;799;-69
2022/04/16 07:06:10;;;;;;;;;;;;;;;;;;4924074;29;1210;-69
2022/04/16 07:08:37;;;;;;;;;;;;;;;;;;4926799;29;1494;-69
2022/04/16 07:11:03;;;;;;;;;;;;;;;;;;4919776;28;1114;-69
2022/04/16 07:13:29;;;;;;;;;;;;;;;;;;4912795;28;796;-70
2022/04/16 07:15:55;;;;;;;;;;;;;;;;;;4912388;28;1978;-69
2022/04/16 07:18:21;;;;;;;;;;;;;;;;;;4979412;28;1648;-69
2022/04/16 07:20:48;;;;;;;;;;;;;;;;;;4931344;28;883;-70
2022/04/16 07:23:15;;;;;;;;;;;;;;;;;;4931498;29;1044;-69
2022/04/16 07:25:41;;;;;;;;;;;;;;;;;;4931412;29;842;-70
2022/04/16 07:28:07;;;;;;;;;;;;;;;;;;4931063;28;1632;-70
2022/04/16 07:30:34;;;;;;;;;;;;;;;;;;4914828;29;2354;-70
2022/04/16 07:33:00;;;;;;;;;;;;;;;;;;4931443;29;882;-70
2022/04/16 07:35:27;;;;;;;;;;;;;;;;;;4931094;29;2267;-70
2022/04/16 07:37:56;;;;;;;;;;;;;;;;;;4930663;29;1564;-71
2022/04/16 07:40:24;;;;;;;;;;;;;;;;;;4992808;28;1069;-71
2022/04/16 07:42:50;;;;;;;;;;;;;;;;;;5030843;28;1126;-71
2022/04/16 07:45:16;;;;;;;;;;;;;;;;;;4948997;28;1599;-71
2022/04/16 07:47:43;;;;;;;;;;;;;;;;;;4924000;28;2505;-70
2022/04/16 07:50:09;;;;;;;;;;;;;;;;;;4925590;29;2494;-70
2022/04/16 07:52:35;;;;;;;;;;;;;;;;;;4937706;28;2326;-71
2022/04/16 07:55:02;;;;;;;;;;;;;;;;;;4996086;28;1918;-71
2022/04/16 07:57:29;;;;;;;;;;;;;;;;;;4930667;29;1382;-70
2022/04/16 07:59:55;;;;;;;;;;;;;;;;;;4930902;29;953;-71
2022/04/16 08:02:21;;;;;;;;;;;;;;;;;;4930839;29;1080;-71
2022/04/16 08:04:48;;;;;;;;;;;;;;;;;;4931647;29;2178;-71
2022/04/16 08:07:14;;;;;;;;;;;;;;;;;;4941381;29;1358;-68
2022/04/16 08:09:40;;;;;;;;;;;;;;;;;;4996686;28;1330;-69
2022/04/16 08:12:07;;;;;;;;;;;;;;;;;;4955493;28;1469;-70
2022/04/16 08:14:34;;;;;;;;;;;;;;;;;;4986101;28;1926;-70
2022/04/16 08:17:00;;;;;;;;;;;;;;;;;;4929662;29;1857;-71
2022/04/16 08:19:27;;;;;;;;;;;;;;;;;;4996128;28;1173;-70
2022/04/16 08:21:53;;;;;;;;;;;;;;;;;;4930330;28;1060;-70
2022/04/16 08:24:38;;;;;;;;;;;;;;;;;;4930863;29;1560;-70
2022/04/16 08:27:05;;;;;;;;;;;;;;;;;;4930278;29;1382;-70
2022/04/16 08:29:32;;;;;;;;;;;;;;;;;;4930783;29;842;-71
2022/04/16 08:31:59;;;;;;;;;;;;;;;;;;4930531;29;1572;-70
2022/04/16 08:34:25;;;;;;;;;;;;;;;;;;4930363;29;1919;-71
2022/04/16 08:36:51;;;;;;;;;;;;;;;;;;4930314;29;1333;-70
2022/04/16 08:39:18;;;;;;;;;;;;;;;;;;4930027;28;1544;-71
2022/04/16 08:41:44;;;;;;;;;;;;;;;;;;4930695;29;950;-70
2022/04/16 08:44:10;;;;;;;;;;;;;;;;;;4930566;29;1688;-70
2022/04/16 08:46:37;;;;;;;;;;;;;;;;;;4987121;28;1185;-70
2022/04/16 08:49:04;;;;;;;;;;;;;;;;;;4921442;29;1492;-70
2022/04/16 08:51:30;;;;;;;;;;;;;;;;;;4920559;29;1280;-71
2022/04/16 08:53:57;;;;;;;;;;;;;;;;;;4930372;28;1607;-71
2022/04/16 08:56:23;;;;;;;;;;;;;;;;;;4929957;29;1978;-71
2022/04/16 08:58:49;;;;;;;;;;;;;;;;;;4993316;28;1544;-71
2022/04/16 09:01:16;;;;;;;;;;;;;;;;;;4930583;29;1130;-71
2022/04/16 09:03:42;;;;;;;;;;;;;;;;;;4930491;29;1061;-72
2022/04/16 09:06:10;;;;;;;;;;;;;;;;;;5051997;23;3663;-67
2022/04/16 09:08:36;;;;;;;;;;;;;;;;;;5066862;28;1486;-70
2022/04/16 09:11:06;;;;;;;;;;;;;;;;;;5072378;28;1179;-69
2022/04/16 09:13:32;;;;;;;;;;;;;;;;;;5070143;28;1631;-69
2022/04/16 09:16:03;;;;;;;;;;;;;;;;;;5065276;28;1921;-70
2022/04/16 09:18:29;;;;;;;;;;;;;;;;;;5073827;28;992;-69
2022/04/16 09:20:55;;;;;;;;;;;;;;;;;;5073377;28;1570;-70
2022/04/16 09:23:23;;;;;;;;;;;;;;;;;;5065822;28;1645;-69
2022/04/16 09:25:50;;;;;;;;;;;;;;;;;;5053009;28;1606;-67
2022/04/16 09:28:17;;;;;;;;;;;;;;;;;;5064397;28;1685;-70
2022/04/16 09:30:48;;;;;;;;;;;;;;;;;;5062561;28;1695;-70
2022/04/16 09:33:14;;;;;;;;;;;;;;;;;;5073233;28;1577;-70
2022/04/16 09:35:41;;;;;;;;;;;;;;;;;;5060587;28;1906;-70
2022/04/16 09:38:07;;;;;;;;;;;;;;;;;;5060665;28;1625;-70
2022/04/16 09:40:35;;;;;;;;;;;;;;;;;;5072502;28;1644;-70
2022/04/16 09:43:02;;;;;;;;;;;;;;;;;;5055292;28;1474;-69
2022/04/16 09:45:28;;;;;;;;;;;;;;;;;;5072724;28;1597;-71
2022/04/16 09:47:55;;;;;;;;;;;;;;;;;;5069149;28;1659;-70
2022/04/16 09:50:22;;;;;;;;;;;;;;;;;;5072674;28;1586;-71
2022/04/16 09:52:53;;;;;;;;;;;;;;;;;;5073438;28;1142;-70
2022/04/16 09:55:22;;;;;;;;;;;;;;;;;;5072849;28;1914;-71
2022/04/16 09:57:55;;;;;;;;;;;;;;;;;;5072515;28;1645;-69
2022/04/16 10:00:21;;;;;;;;;;;;;;;;;;5072201;28;1747;-70
2022/04/16 10:02:47;;;;;;;;;;;;;;;;;;5071910;28;2220;-70
2022/04/16 10:05:14;;;;;;;;;;;;;;;;;;5065453;28;1783;-70
2022/04/16 10:07:40;;;;;;;;;;;;;;;;;;5068538;28;1784;-71
2022/04/16 10:10:17;;;;;;;;;;;;;;;;;;5071496;28;1819;-72
2022/04/16 10:13:03;;;;;;;;;;;;;;;;;;5072459;28;1422;-70
2022/04/16 10:15:36;;;;;;;;;;;;;;;;;;5072354;28;1914;-71
2022/04/16 10:18:03;;;;;;;;;;;;;;;;;;5072433;28;1427;-70
2022/04/16 10:20:29;;;;;;;;;;;;;;;;;;5072217;28;1613;-70
2022/04/16 10:22:55;;;;;;;;;;;;;;;;;;5054953;28;1167;-71
2022/04/16 10:25:29;;;;;;;;;;;;;;;;;;5072581;28;1586;-72
2022/04/16 10:27:59;;;;;;;;;;;;;;;;;;5072668;28;842;-73
2022/04/16 10:30:35;;;;;;;;;;;;;;;;;;5072526;28;1645;-72
2022/04/16 10:33:03;;;;;;;;;;;;;;;;;;5069196;28;1179;-70
2022/04/16 10:35:29;;;;;;;;;;;;;;;;;;5060376;28;1918;-71
2022/04/16 10:37:56;;;;;;;;;;;;;;;;;;5062009;28;1270;-71
2022/04/16 10:40:23;;;;;;;;;;;;;;;;;;5070659;28;1389;-71
2022/04/16 10:42:50;;;;;;;;;;;;;;;;;;5072655;28;838;-71
2022/04/16 10:45:16;;;;;;;;;;;;;;;;;;5072236;28;1626;-70
2022/04/16 10:47:42;;;;;;;;;;;;;;;;;;5071932;28;1554;-71
2022/04/16 10:50:12;;;;;;;;;;;;;;;;;;5072046;28;1605;-71
2022/04/16 10:52:38;;;;;;;;;;;;;;;;;;5071686;28;1741;-71
2022/04/16 10:55:06;;;;;;;;;;;;;;;;;;5071992;28;1981;-71
2022/04/16 10:57:33;;;;;;;;;;;;;;;;;;5071044;28;1829;-72
2022/04/16 10:59:59;;;;;;;;;;;;;;;;;;5065949;28;1531;-70
2022/04/16 11:02:26;;;;;;;;;;;;;;;;;;5055398;28;1451;-70
2022/04/16 11:04:56;;;;;;;;;;;;;;;;;;5071297;28;1602;-71
2022/04/16 11:07:23;;;;;;;;;;;;;;;;;;5072503;28;932;-70
2022/04/16 11:09:51;;;;;;;;;;;;;;;;;;5063391;28;1471;-70
2022/04/16 11:12:18;;;;;;;;;;;;;;;;;;5034071;28;1755;-70
2022/04/16 11:14:45;;;;;;;;;;;;;;;;;;5069825;28;1590;-71
2022/04/16 11:17:11;;;;;;;;;;;;;;;;;;5071625;28;1913;-71
2022/04/16 11:19:38;;;;;;;;;;;;;;;;;;5070684;28;1531;-71
2022/04/16 11:22:05;;;;;;;;;;;;;;;;;;5071740;28;1126;-71
2022/04/16 11:24:32;;;;;;;;;;;;;;;;;;5071768;28;1302;-71
2022/04/16 11:35:22;;;;;;;;;;;;;;;;;;5071142;28;1983;-72
2022/04/16 11:37:53;;;;;;;;;;;;;;;;;;5071314;28;1071;-71
2022/04/16 11:40:20;;;;;;;;;;;;;;;;;;5071164;28;976;-71
2022/04/16 11:42:46;;;;;;;;;;;;;;;;;;5070995;28;1091;-71
2022/04/16 11:45:14;;;;;;;;;;;;;;;;;;5070957;28;1306;-72
2022/04/16 11:47:40;;;;;;;;;;;;;;;;;;5052955;28;878;-71
2022/04/16 11:50:08;;;;;;;;;;;;;;;;;;5070832;28;1068;-70
2022/04/16 11:52:35;;;;;;;;;;;;;;;;;;5070806;28;1079;-72
2022/04/16 11:55:05;;;;;;;;;;;;;;;;;;5052768;28;1309;-71
2022/04/16 11:57:32;;;;;;;;;;;;;;;;;;5070482;28;1126;-72
2022/04/16 11:59:59;;;;;;;;;;;;;;;;;;5070952;28;1060;-71
2022/04/16 12:02:31;;;;;;;;;;;;;;;;;;5069688;28;1526;-71
2022/04/16 12:05:07;;;;;;;;;;;;;;;;;;5069940;28;1681;-71
2022/04/16 12:07:33;;;;;;;;;;;;;;;;;;5070505;28;1056;-71
2022/04/16 12:10:01;;;;;;;;;;;;;;;;;;5052463;28;1695;-71
2022/04/16 12:12:27;;;;;;;;;;;;;;;;;;5069851;28;1598;-70
2022/04/16 12:14:55;;;;;;;;;;;;;;;;;;5070725;28;1282;-71
2022/04/16 12:17:22;;;;;;;;;;;;;;;;;;5070504;28;1918;-72
2022/04/16 12:19:55;;;;;;;;;;;;;;;;;;5070789;28;1076;-71
2022/04/16 12:22:22;;;;;;;;;;;;;;;;;;5070644;28;1118;-71
2022/04/16 12:24:48;;;;;;;;;;;;;;;;;;5070571;28;1317;-71
2022/04/16 12:27:24;;;;;;;;;;;;;;;;;;5052581;28;818;-71
2022/04/16 12:29:50;;;;;;;;;;;;;;;;;;5052814;28;890;-72
2022/04/16 12:32:25;;;;;;;;;;;;;;;;;;5070197;28;1115;-72
2022/04/16 12:34:51;;;;;;;;;;;;;;;;;;5070594;28;1306;-70
2022/04/16 12:37:17;;;;;;;;;;;;;;;;;;5070185;28;1918;-71
2022/04/16 12:39:44;;;;;;;;;;;;;;;;;;5070422;28;1064;-72
2022/04/16 12:42:10;;;;;;;;;;;;;;;;;;5071556;28;886;-71
2022/04/16 12:44:36;;;;;;;;;;;;;;;;;;5074432;28;1273;-71
2022/04/16 12:47:03;;;;;;;;;;;;;;;;;;5074437;28;770;-70
2022/04/16 12:49:30;;;;;;;;;;;;;;;;;;5074636;28;945;-72
2022/04/16 12:51:58;;;;;;;;;;;;;;;;;;5074994;28;1008;-71
2022/04/16 12:54:24;;;;;;;;;;;;;;;;;;5074417;28;1325;-72
2022/04/16 12:56:50;;;;;;;;;;;;;;;;;;5074589;28;1914;-70
2022/04/16 12:59:16;;;;;;;;;;;;;;;;;;5074573;28;1059;-71
2022/04/16 13:01:42;;;;;;;;;;;;;;;;;;5074183;28;955;-71
2022/04/16 13:04:09;;;;;;;;;;;;;;;;;;5074194;28;1375;-70
2022/04/16 13:06:36;;;;;;;;;;;;;;;;;;5073914;28;950;-71
2022/04/16 13:09:02;;;;;;;;;;;;;;;;;;5074189;28;798;-71
2022/04/16 13:11:29;;;;;;;;;;;;;;;;;;5073925;28;945;-72
2022/04/16 13:13:55;;;;;;;;;;;;;;;;;;5074115;28;1060;-71
2022/04/16 13:16:21;;;;;;;;;;;;;;;;;;5073544;28;1329;-71
2022/04/16 13:18:49;;;;;;;;;;;;;;;;;;5074003;28;766;-71
2022/04/16 13:21:15;;;;;;;;;;;;;;;;;;5074183;28;1075;-72
2022/04/16 13:23:43;;;;;;;;;;;;;;;;;;5073907;28;921;-70
2022/04/16 13:26:09;;;;;;;;;;;;;;;;;;5073215;28;1914;-69
2022/04/16 13:28:35;;;;;;;;;;;;;;;;;;5073892;28;905;-71
2022/04/16 13:31:01;;;;;;;;;;;;;;;;;;5073829;28;853;-71
2022/04/16 13:33:28;;;;;;;;;;;;;;;;;;5073739;28;1115;-71
2022/04/16 13:35:54;;;;;;;;;;;;;;;;;;5073662;28;1274;-72
2022/04/16 13:38:20;;;;;;;;;;;;;;;;;;5073280;28;1062;-72
2022/04/16 13:43:31;;;;;;;;;;;;;;;;;;5073439;28;1025;-72
2022/04/16 13:45:58;;;;;;;;;;;;;;;;;;5073492;28;1918;-72
2022/04/16 13:48:25;;;;;;;;;;;;;;;;;;5073110;28;1208;-72
2022/04/16 13:50:51;;;;;;;;;;;;;;;;;;5073564;28;929;-71
2022/04/16 13:53:18;;;;;;;;;;;;;;;;;;5072579;28;1339;-72
2022/04/16 13:55:44;;;;;;;;;;;;;;;;;;5072599;28;1567;-72
2022/04/16 13:58:11;;;;;;;;;;;;;;;;;;5071675;28;1499;-71
2022/04/16 14:00:37;;;;;;;;;;;;;;;;;;5073055;28;1407;-71
2022/04/16 14:03:05;;;;;;;;;;;;;;;;;;5073101;28;1593;-71
2022/04/16 14:05:46;;;;;;;;;;;;;;;;;;5071576;28;1835;-69
2022/04/16 14:08:13;;;;;;;;;;;;;;;;;;5071543;28;1422;-72
2022/04/16 14:10:40;;;;;;;;;;;;;;;;;;5061550;28;1528;-71
2022/04/16 14:13:06;;;;;;;;;;;;;;;;;;5052981;28;1084;-71
2022/04/16 14:15:33;;;;;;;;;;;;;;;;;;5061658;28;1590;-71
2022/04/16 14:18:00;;;;;;;;;;;;;;;;;;5053955;28;1585;-71
2022/04/16 14:20:26;;;;;;;;;;;;;;;;;;5072616;28;1518;-71
2022/04/16 14:22:52;;;;;;;;;;;;;;;;;;5072966;28;997;-71
2022/04/16 14:25:18;;;;;;;;;;;;;;;;;;5072192;28;1637;-72
2022/04/16 14:27:45;;;;;;;;;;;;;;;;;;5053816;28;1981;-71
2022/04/16 14:30:11;;;;;;;;;;;;;;;;;;5053981;28;1913;-70
2022/04/16 14:32:39;;;;;;;;;;;;;;;;;;5072338;28;2167;-69
2022/04/16 14:35:05;;;;;;;;;;;;;;;;;;5070822;28;1719;-69
2022/04/16 14:37:32;;;;;;;;;;;;;;;;;;5071972;28;1625;-68
2022/04/16 14:39:58;;;;;;;;;;;;;;;;;;5072422;28;1700;-69
2022/04/16 14:42:24;;;;;;;;;;;;;;;;;;5070114;28;1518;-70
2022/04/16 14:44:52;;;;;;;;;;;;;;;;;;5070393;28;1398;-69
2022/04/16 14:47:19;;;;;;;;;;;;;;;;;;5069783;28;1918;-69
2022/04/16 14:49:47;;;;;;;;;;;;;;;;;;5070112;28;941;-69
2022/04/16 14:52:14;;;;;;;;;;;;;;;;;;5069882;28;1585;-70
2022/04/16 14:54:40;;;;;;;;;;;;;;;;;;5069613;28;1573;-70
2022/04/16 14:57:06;;;;;;;;;;;;;;;;;;5069807;28;1553;-70
2022/04/16 14:59:32;;;;;;;;;;;;;;;;;;5068002;28;1052;-70
2022/04/16 15:02:01;;;;;;;;;;;;;;;;;;5069669;28;1503;-70
2022/04/16 15:04:27;;;;;;;;;;;;;;;;;;5068783;28;1403;-69
2022/04/16 15:06:55;;;;;;;;;;;;;;;;;;5069305;28;1906;-69
2022/04/16 15:09:21;;;;;;;;;;;;;;;;;;5051602;28;1954;-69
2022/04/16 15:11:47;;;;;;;;;;;;;;;;;;5068973;28;1617;-71
2022/04/16 15:14:13;;;;;;;;;;;;;;;;;;5069733;28;1467;-71
2022/04/16 15:16:39;;;;;;;;;;;;;;;;;;5069049;28;1602;-73
2022/04/16 15:19:06;;;;;;;;;;;;;;;;;;5068198;28;1597;-73
2022/04/16 15:21:33;;;;;;;;;;;;;;;;;;5062159;28;1218;-73
2022/04/16 15:24:01;;;;;;;;;;;;;;;;;;5067665;28;1796;-73
2022/04/16 15:26:27;;;;;;;;;;;;;;;;;;5070791;28;1981;-72
2022/04/16 15:28:53;;;;;;;;;;;;;;;;;;5070934;28;1434;-70
2022/04/16 15:31:23;;;;;;;;;;;;;;;;;;5071084;28;1629;-72
2022/04/16 15:33:51;;;;;;;;;;;;;;;;;;5071440;28;1554;-71
2022/04/16 15:36:18;;;;;;;;;;;;;;;;;;5071022;28;1304;-72
2022/04/16 15:38:44;;;;;;;;;;;;;;;;;;5071219;28;1626;-72
2022/04/16 15:41:11;;;;;;;;;;;;;;;;;;5070880;28;1593;-72
2022/04/16 15:43:37;;;;;;;;;;;;;;;;;;5070593;28;1610;-72
2022/04/16 15:46:04;;;;;;;;;;;;;;;;;;5067006;28;1293;-72
2022/04/16 15:48:30;;;;;;;;;;;;;;;;;;5077292;28;1971;-72
2022/04/16 15:50:56;;;;;;;;;;;;;;;;;;5067820;28;1473;-72
2022/04/16 15:53:22;;;;;;;;;;;;;;;;;;5068375;28;2021;-72
2022/04/16 15:55:48;;;;;;;;;;;;;;;;;;5068251;28;1572;-72
2022/04/16 15:58:16;;;;;;;;;;;;;;;;;;5068132;28;1601;-71
2022/04/16 16:00:43;;;;;;;;;;;;;;;;;;5066723;28;1608;-69
2022/04/16 16:03:10;;;;;;;;;;;;;;;;;;5071204;28;1359;-70
2022/04/16 16:05:36;;;;;;;;;;;;;;;;;;5068070;28;1786;-70
2022/04/16 16:08:02;;;;;;;;;;;;;;;;;;5064332;28;1909;-70
2022/04/16 16:10:28;;;;;;;;;;;;;;;;;;5067684;28;1593;-70
2022/04/16 16:12:55;;;;;;;;;;;;;;;;;;5067958;28;1729;-70
2022/04/16 16:15:24;;;;;;;;;;;;;;;;;;5067703;28;1447;-70
2022/04/16 16:17:50;;;;;;;;;;;;;;;;;;5067807;28;1095;-70
2022/04/16 16:20:17;;;;;;;;;;;;;;;;;;5066758;28;1550;-71
2022/04/16 16:22:44;;;;;;;;;;;;;;;;;;5072235;28;1569;-70
2022/04/16 16:25:11;;;;;;;;;;;;;;;;;;5048828;28;1600;-72
2022/04/16 16:27:37;;;;;;;;;;;;;;;;;;5068071;28;1902;-69
2022/04/16 16:30:03;;;;;;;;;;;;;;;;;;5067380;28;1538;-69
2022/04/16 16:32:32;;;;;;;;;;;;;;;;;;5068338;28;1091;-70
2022/04/16 16:34:58;;;;;;;;;;;;;;;;;;5050710;28;1633;-71
2022/04/16 16:37:24;;;;;;;;;;;;;;;;;;5069335;28;1040;-71
2022/04/16 16:39:51;;;;;;;;;;;;;;;;;;5068655;28;1514;-70
2022/04/16 16:42:19;;;;;;;;;;;;;;;;;;5069237;28;763;-71
2022/04/16 16:44:45;;;;;;;;;;;;;;;;;;5068940;28;1538;-71
2022/04/16 16:47:12;;;;;;;;;;;;;;;;;;5068469;28;1976;-71
2022/04/16 16:49:39;;;;;;;;;;;;;;;;;;5048965;28;1609;-72
2022/04/16 16:52:06;;;;;;;;;;;;;;;;;;5068179;28;1423;-71
2022/04/16 16:54:32;;;;;;;;;;;;;;;;;;5068823;28;1526;-70
2022/04/16 16:56:58;;;;;;;;;;;;;;;;;;5067564;28;1577;-70
2022/04/16 16:59:25;;;;;;;;;;;;;;;;;;5068110;28;1620;-70
2022/04/16 17:01:51;;;;;;;;;;;;;;;;;;5068407;28;1609;-70
2022/04/16 17:09:47;;;;;;;;;;;;;;;;;;5067950;28;1439;-71
2022/04/16 17:12:13;;;;;;;;;;;;;;;;;;5067920;28;1063;-71
2022/04/16 17:20:10;;;;;;;;;;;;;;;;;;5070474;28;1602;-72
2022/04/16 17:22:38;;;;;;;;;;;;;;;;;;5050572;28;1569;-72
2022/04/16 17:25:05;;;;;;;;;;;;;;;;;;5067977;28;1281;-71
2022/04/16 17:27:31;;;;;;;;;;;;;;;;;;5065094;28;1914;-71
2022/04/16 17:29:57;;;;;;;;;;;;;;;;;;5071308;28;1566;-72
2022/04/16 17:32:23;;;;;;;;;;;;;;;;;;5071144;28;1141;-71
2022/04/16 17:34:50;;;;;;;;;;;;;;;;;;5071235;28;1554;-72
2022/04/16 17:37:16;;;;;;;;;;;;;;;;;;5053220;28;1546;-71